createdAt,value
2017-11-05T00:00:49.412Z,0
2017-11-05T00:01:34.818Z,0
2017-11-05T00:02:34.838Z,0
2017-11-05T00:05:34.899Z,0
2017-11-05T00:06:34.912Z,0
2017-11-05T00:07:34.953Z,0
2017-11-05T00:08:34.982Z,0
2017-11-05T00:09:49.572Z,0
2017-11-05T00:10:49.581Z,0
2017-11-05T00:11:34.696Z,0
2017-11-05T00:12:35.015Z,0
2017-11-05T00:13:34.724Z,0
2017-11-05T00:14:35.061Z,0
2017-11-05T00:15:35.063Z,0
2017-11-05T00:16:35.099Z,0
2017-11-05T00:17:35.102Z,0
2017-11-05T00:18:35.127Z,0
2017-11-05T00:19:35.152Z,0
2017-11-05T00:20:49.765Z,0
2017-11-05T00:22:35.212Z,0
2017-11-05T00:23:35.230Z,0
2017-11-05T00:25:35.264Z,0
2017-11-05T00:26:49.902Z,0
2017-11-05T00:27:35.285Z,0
2017-11-05T00:28:35.295Z,0
2017-11-05T00:29:49.917Z,0
2017-11-05T00:30:35.021Z,0
2017-11-05T00:31:34.718Z,0
2017-11-05T00:33:35.418Z,0
2017-11-05T00:34:35.083Z,0
2017-11-05T00:35:50.024Z,0
2017-11-05T00:36:35.131Z,0
2017-11-05T00:37:35.472Z,0
2017-11-05T00:38:35.162Z,0
2017-11-05T00:39:35.515Z,0
2017-11-05T00:40:35.189Z,0
2017-11-05T00:41:35.230Z,0
2017-11-05T00:42:50.150Z,0
2017-11-05T00:43:35.572Z,0
2017-11-05T00:44:35.588Z,0
2017-11-05T00:45:35.618Z,0
2017-11-05T00:46:50.252Z,0
2017-11-05T00:47:35.335Z,0
2017-11-05T00:48:50.260Z,0
2017-11-05T00:49:35.026Z,0
2017-11-05T00:50:35.730Z,0
2017-11-05T00:51:35.722Z,0
2017-11-05T00:52:50.343Z,0
2017-11-05T00:53:50.359Z,0
2017-11-05T00:54:35.772Z,0
2017-11-05T00:56:35.814Z,0
2017-11-05T00:57:35.176Z,0
2017-11-05T00:58:35.841Z,0
2017-11-05T00:59:35.839Z,0
2017-11-05T01:00:35.582Z,0
2017-11-05T01:01:35.907Z,0
2017-11-05T01:03:35.949Z,0
2017-11-05T01:04:50.560Z,0
2017-11-05T01:06:35.989Z,0
2017-11-05T01:07:36.002Z,0
2017-11-05T01:08:35.704Z,0
2017-11-05T01:09:36.042Z,0
2017-11-05T01:10:35.417Z,0
2017-11-05T01:11:35.436Z,0
2017-11-05T01:12:50.705Z,0
2017-11-05T01:14:35.804Z,0
2017-11-05T01:15:35.827Z,0
2017-11-05T01:16:36.150Z,0
2017-11-05T01:17:35.860Z,0
2017-11-05T01:18:35.878Z,0
2017-11-05T01:19:35.580Z,0
2017-11-05T01:22:35.643Z,0
2017-11-05T01:23:35.993Z,0
2017-11-05T01:24:36.009Z,0
2017-11-05T01:25:35.999Z,0
2017-11-05T01:26:35.697Z,0
2017-11-05T01:27:36.362Z,0
2017-11-05T01:28:36.397Z,0
2017-11-05T01:29:36.083Z,0
2017-11-05T01:30:35.792Z,0
2017-11-05T01:31:36.426Z,0
2017-11-05T01:32:36.450Z,0
2017-11-05T01:33:36.480Z,0
2017-11-05T01:34:36.169Z,0
2017-11-05T01:35:51.102Z,0
2017-11-05T01:36:51.142Z,0
2017-11-05T01:37:50.820Z,0
2017-11-05T01:38:36.561Z,0
2017-11-05T01:39:36.575Z,0
2017-11-05T01:40:36.270Z,0
2017-11-05T01:41:36.606Z,0
2017-11-05T01:42:36.629Z,0
2017-11-05T01:43:36.314Z,0
2017-11-05T01:44:51.282Z,0
2017-11-05T01:45:36.377Z,0
2017-11-05T01:46:36.705Z,0
2017-11-05T01:47:51.331Z,0
2017-11-05T01:48:36.749Z,0
2017-11-05T01:49:36.770Z,0
2017-11-05T01:50:36.166Z,0
2017-11-05T01:51:51.390Z,0
2017-11-05T01:52:36.815Z,0
2017-11-05T01:53:36.514Z,0
2017-11-05T01:54:36.858Z,0
2017-11-05T01:55:36.880Z,0
2017-11-05T01:56:36.896Z,0
2017-11-05T01:57:36.899Z,0
2017-11-05T01:58:36.606Z,0
2017-11-05T01:59:51.542Z,0
2017-11-05T02:00:36.637Z,0
2017-11-05T02:01:36.969Z,0
2017-11-05T02:02:37.000Z,0
2017-11-05T02:03:51.290Z,0
2017-11-05T02:04:37.032Z,0
2017-11-05T02:05:37.051Z,0
2017-11-05T02:06:37.066Z,0
2017-11-05T02:07:51.700Z,0
2017-11-05T02:09:37.125Z,0
2017-11-05T02:10:51.746Z,0
2017-11-05T02:11:36.830Z,0
2017-11-05T02:12:37.185Z,0
2017-11-05T02:13:51.796Z,0
2017-11-05T02:14:37.193Z,0
2017-11-05T02:16:37.241Z,0
2017-11-05T02:17:37.283Z,0
2017-11-05T02:18:51.877Z,0
2017-11-05T02:19:37.300Z,0
2017-11-05T02:20:37.310Z,0
2017-11-05T02:21:36.998Z,0
2017-11-05T02:22:37.363Z,0
2017-11-05T02:24:06.252Z,0
2017-11-05T02:24:37.057Z,0
2017-11-05T02:25:52.010Z,0
2017-11-05T02:26:37.100Z,0
2017-11-05T02:27:37.108Z,0
2017-11-05T02:28:37.483Z,0
2017-11-05T02:29:37.161Z,0
2017-11-05T02:30:37.491Z,0
2017-11-05T02:32:37.536Z,0
2017-11-05T02:33:37.531Z,0
2017-11-05T02:34:37.240Z,0
2017-11-05T02:35:37.583Z,0
2017-11-05T02:36:37.602Z,0
2017-11-05T02:37:37.595Z,0
2017-11-05T02:38:37.643Z,0
2017-11-05T02:39:52.250Z,0
2017-11-05T02:40:52.266Z,0
2017-11-05T02:41:37.359Z,0
2017-11-05T02:42:37.374Z,0
2017-11-05T02:43:37.401Z,0
2017-11-05T02:44:37.746Z,0
2017-11-05T02:45:37.122Z,0
2017-11-05T02:46:37.767Z,0
2017-11-05T02:47:37.464Z,0
2017-11-05T02:48:37.804Z,0
2017-11-05T02:49:37.831Z,0
2017-11-05T02:50:52.431Z,0
2017-11-05T02:51:52.476Z,0
2017-11-05T02:52:52.489Z,0
2017-11-05T02:53:37.876Z,0
2017-11-05T02:54:38.268Z,0
2017-11-05T02:55:52.546Z,0
2017-11-05T02:56:37.962Z,0
2017-11-05T02:57:37.976Z,0
2017-11-05T02:58:37.986Z,0
2017-11-05T02:59:38.043Z,0
2017-11-05T03:00:38.034Z,0
2017-11-05T03:01:37.380Z,0
2017-11-05T03:02:38.064Z,0
2017-11-05T03:03:38.074Z,0
2017-11-05T03:04:37.760Z,0
2017-11-05T03:05:38.118Z,0
2017-11-05T03:06:38.125Z,0
2017-11-05T03:07:37.821Z,0
2017-11-05T03:08:38.151Z,0
2017-11-05T03:09:38.170Z,0
2017-11-05T03:10:52.808Z,0
2017-11-05T03:11:38.219Z,0
2017-11-05T03:12:38.231Z,0
2017-11-05T03:13:37.923Z,0
2017-11-05T03:14:37.927Z,0
2017-11-05T03:15:38.286Z,0
2017-11-05T03:16:37.971Z,0
2017-11-05T03:17:38.311Z,0
2017-11-05T03:18:38.015Z,0
2017-11-05T03:19:38.372Z,0
2017-11-05T03:21:52.986Z,0
2017-11-05T03:22:38.408Z,0
2017-11-05T03:23:38.101Z,0
2017-11-05T03:24:38.466Z,0
2017-11-05T03:25:53.067Z,0
2017-11-05T03:27:38.181Z,0
2017-11-05T03:28:38.181Z,0
2017-11-05T03:29:38.203Z,0
2017-11-05T03:30:38.573Z,0
2017-11-05T03:31:38.251Z,0
2017-11-05T03:33:52.881Z,0
2017-11-05T03:34:38.619Z,0
2017-11-05T03:35:38.638Z,0
2017-11-05T03:36:38.329Z,0
2017-11-05T03:37:38.678Z,0
2017-11-05T03:38:38.360Z,0
2017-11-05T03:39:38.690Z,0
2017-11-05T03:40:38.714Z,0
2017-11-05T03:41:38.763Z,0
2017-11-05T03:42:53.359Z,0
2017-11-05T03:43:53.365Z,0
2017-11-05T03:44:38.782Z,0
2017-11-05T03:45:38.155Z,0
2017-11-05T03:46:38.532Z,0
2017-11-05T03:47:38.856Z,0
2017-11-05T03:48:38.537Z,0
2017-11-05T03:49:38.878Z,0
2017-11-05T03:50:38.915Z,0
2017-11-05T03:51:38.908Z,0
2017-11-05T03:53:38.938Z,0
2017-11-05T03:54:38.943Z,0
2017-11-05T03:56:38.984Z,0
2017-11-05T03:57:38.692Z,0
2017-11-05T03:58:53.638Z,0
2017-11-05T03:59:39.061Z,0
2017-11-05T04:00:38.754Z,0
2017-11-05T04:01:38.756Z,0
2017-11-05T04:02:39.107Z,0
2017-11-05T04:03:39.120Z,0
2017-11-05T04:04:39.135Z,0
2017-11-05T04:05:53.758Z,0
2017-11-05T04:06:39.196Z,0
2017-11-05T04:07:39.192Z,0
2017-11-05T04:08:39.204Z,0
2017-11-05T04:09:39.214Z,0
2017-11-05T04:10:39.247Z,0
2017-11-05T04:11:39.267Z,0
2017-11-05T04:12:39.282Z,0
2017-11-05T04:13:39.302Z,0
2017-11-05T04:15:53.923Z,0
2017-11-05T04:16:39.334Z,0
2017-11-05T04:17:39.373Z,0
2017-11-05T04:18:39.074Z,0
2017-11-05T04:19:39.443Z,0
2017-11-05T04:20:39.405Z,0
2017-11-05T04:21:39.094Z,0
2017-11-05T04:22:38.801Z,0
2017-11-05T04:23:54.058Z,0
2017-11-05T04:24:39.194Z,0
2017-11-05T04:25:38.866Z,0
2017-11-05T04:26:39.182Z,0
2017-11-05T04:27:39.209Z,0
2017-11-05T04:28:39.229Z,0
2017-11-05T04:29:39.251Z,0
2017-11-05T04:30:54.181Z,0
2017-11-05T04:31:53.908Z,0
2017-11-05T04:32:39.618Z,0
2017-11-05T04:33:39.644Z,0
2017-11-05T04:34:39.660Z,0
2017-11-05T04:35:39.363Z,0
2017-11-05T04:36:39.042Z,0
2017-11-05T04:37:39.390Z,0
2017-11-05T04:38:39.400Z,0
2017-11-05T04:39:39.734Z,0
2017-11-05T04:40:39.756Z,0
2017-11-05T04:41:39.783Z,0
2017-11-05T04:42:54.413Z,0
2017-11-05T04:43:39.502Z,0
2017-11-05T04:44:39.498Z,0
2017-11-05T04:45:54.144Z,0
2017-11-05T04:46:54.460Z,0
2017-11-05T04:47:39.888Z,0
2017-11-05T04:48:39.586Z,0
2017-11-05T04:49:39.921Z,0
2017-11-05T04:50:39.950Z,0
2017-11-05T04:51:39.957Z,0
2017-11-05T04:52:39.967Z,0
2017-11-05T04:53:39.678Z,0
2017-11-05T04:54:40.021Z,0
2017-11-05T04:55:39.383Z,0
2017-11-05T04:56:40.043Z,0
2017-11-05T04:57:40.039Z,0
2017-11-05T05:00:39.783Z,0
2017-11-05T05:01:54.724Z,0
2017-11-05T05:02:39.820Z,0
2017-11-05T05:03:39.860Z,0
2017-11-05T05:04:39.862Z,0
2017-11-05T05:05:39.864Z,0
2017-11-05T05:06:39.901Z,0
2017-11-05T05:07:39.900Z,0
2017-11-05T05:08:40.253Z,0
2017-11-05T05:09:40.262Z,0
2017-11-05T05:10:40.277Z,0
2017-11-05T05:11:54.912Z,0
2017-11-05T05:12:54.935Z,0
2017-11-05T05:13:40.327Z,0
2017-11-05T05:14:40.343Z,0
2017-11-05T05:15:40.363Z,0
2017-11-05T05:16:54.999Z,0
2017-11-05T05:17:55.021Z,0
2017-11-05T05:18:40.411Z,0
2017-11-05T05:19:40.429Z,0
2017-11-05T05:20:40.465Z,0
2017-11-05T05:21:54.741Z,0
2017-11-05T05:22:40.168Z,0
2017-11-05T05:23:40.538Z,0
2017-11-05T05:24:54.806Z,0
2017-11-05T05:25:40.541Z,0
2017-11-05T05:26:40.578Z,0
2017-11-05T05:27:40.575Z,0
2017-11-05T05:28:40.592Z,0
2017-11-05T05:29:40.609Z,0
2017-11-05T05:30:40.300Z,0
2017-11-05T05:31:40.663Z,0
2017-11-05T05:32:55.268Z,4
2017-11-05T05:34:09.885Z,4
2017-11-05T05:34:40.388Z,4
2017-11-05T05:35:40.376Z,0
2017-11-05T05:36:40.723Z,4
2017-11-05T05:37:40.430Z,4
2017-11-05T05:38:40.454Z,4
2017-11-05T05:39:40.789Z,4
2017-11-05T05:40:40.792Z,8
2017-11-05T05:41:40.812Z,8
2017-11-05T05:42:40.825Z,8
2017-11-05T05:43:40.530Z,8
2017-11-05T05:44:40.887Z,12
2017-11-05T05:45:40.241Z,12
2017-11-05T05:46:40.578Z,16
2017-11-05T05:48:40.610Z,24
2017-11-05T05:49:55.565Z,28
2017-11-05T05:50:40.976Z,32
2017-11-05T05:51:40.649Z,40
2017-11-05T05:52:40.677Z,48
2017-11-05T05:53:41.015Z,52
2017-11-05T05:54:41.051Z,64
2017-11-05T05:55:55.345Z,72
2017-11-05T05:56:55.679Z,84
2017-11-05T05:57:55.699Z,96
2017-11-05T05:58:41.110Z,104
2017-11-05T05:59:41.166Z,120
2017-11-05T06:00:40.821Z,132
2017-11-05T06:01:41.157Z,152
2017-11-05T06:02:55.473Z,172
2017-11-05T06:03:55.808Z,188
2017-11-05T06:04:55.508Z,212
2017-11-05T06:05:55.837Z,232
2017-11-05T06:06:41.241Z,252
2017-11-05T06:07:41.270Z,272
2017-11-05T06:08:41.288Z,300
2017-11-05T06:09:40.981Z,332
2017-11-05T06:10:55.924Z,376
2017-11-05T06:11:41.322Z,404
2017-11-05T06:12:41.356Z,444
2017-11-05T06:13:55.970Z,492
2017-11-05T06:14:41.388Z,524
2017-11-05T06:15:41.403Z,564
2017-11-05T06:16:41.419Z,604
2017-11-05T06:17:56.053Z,660
2017-11-05T06:18:41.438Z,696
2017-11-05T06:19:41.469Z,752
2017-11-05T06:21:10.380Z,844
2017-11-05T06:21:40.859Z,876
2017-11-05T06:22:41.525Z,940
2017-11-05T06:23:41.549Z,1000
2017-11-05T06:24:41.575Z,1048
2017-11-05T06:25:41.566Z,1096
2017-11-05T06:26:41.276Z,1152
2017-11-05T06:27:41.609Z,1208
2017-11-05T06:28:41.633Z,1268
2017-11-05T06:29:41.659Z,1352
2017-11-05T06:30:56.270Z,1452
2017-11-05T06:31:41.353Z,1516
2017-11-05T06:32:41.376Z,1600
2017-11-05T06:33:41.385Z,1700
2017-11-05T06:35:41.758Z,1928
2017-11-05T06:36:41.778Z,2056
2017-11-05T06:37:41.457Z,2144
2017-11-05T06:38:56.420Z,2284
2017-11-05T06:39:41.494Z,2380
2017-11-05T06:41:41.862Z,2624
2017-11-05T06:42:41.556Z,2752
2017-11-05T06:43:41.875Z,2876
2017-11-05T06:44:56.512Z,3032
2017-11-05T06:45:41.939Z,3128
2017-11-05T06:47:41.621Z,3320
2017-11-05T06:48:56.585Z,3448
2017-11-05T06:49:56.599Z,3552
2017-11-05T06:50:42.000Z,3620
2017-11-05T06:51:42.062Z,3708
2017-11-05T06:52:56.331Z,3808
2017-11-05T06:53:42.057Z,3876
2017-11-05T06:54:42.082Z,3972
2017-11-05T06:55:42.094Z,4084
2017-11-05T06:56:56.727Z,4208
2017-11-05T06:57:41.818Z,4272
2017-11-05T06:58:56.439Z,4368
2017-11-05T06:59:56.772Z,4440
2017-11-05T07:00:56.793Z,4772
2017-11-05T07:01:42.193Z,5684
2017-11-05T07:02:42.231Z,7304
2017-11-05T07:03:42.250Z,9476
2017-11-05T07:04:42.252Z,11648
2017-11-05T07:05:56.886Z,12992
2017-11-05T07:06:42.290Z,13088
2017-11-05T07:07:41.987Z,13536
2017-11-05T07:09:11.537Z,12864
2017-11-05T07:09:42.337Z,12416
2017-11-05T07:10:42.353Z,11904
2017-11-05T07:12:42.081Z,7928
2017-11-05T07:14:42.442Z,7528
2017-11-05T07:15:42.463Z,7964
2017-11-05T07:16:42.472Z,8152
2017-11-05T07:17:56.781Z,8444
2017-11-05T07:18:42.512Z,8368
2017-11-05T07:19:57.138Z,8704
2017-11-05T07:20:42.227Z,8924
2017-11-05T07:21:42.236Z,8716
2017-11-05T07:22:42.272Z,8448
2017-11-05T07:23:42.622Z,8328
2017-11-05T07:24:57.222Z,9204
2017-11-05T07:25:42.646Z,9508
2017-11-05T07:26:42.349Z,9688
2017-11-05T07:27:42.693Z,9904
2017-11-05T07:28:42.716Z,9916
2017-11-05T07:30:42.745Z,9988
2017-11-05T07:31:42.784Z,10124
2017-11-05T07:34:42.829Z,10348
2017-11-05T07:35:42.517Z,10004
2017-11-05T07:36:42.877Z,9900
2017-11-05T07:37:42.863Z,10080
2017-11-05T07:38:42.891Z,9660
2017-11-05T07:39:42.941Z,9592
2017-11-05T07:40:57.533Z,9468
2017-11-05T07:41:42.975Z,9284
2017-11-05T07:42:42.646Z,9352
2017-11-05T07:43:43.001Z,9936
2017-11-05T07:44:42.681Z,9872
2017-11-05T07:45:43.041Z,9688
2017-11-05T07:46:42.722Z,9856
2017-11-05T07:47:57.354Z,10060
2017-11-05T07:48:42.772Z,10020
2017-11-05T07:49:42.461Z,9856
2017-11-05T07:50:57.417Z,9968
2017-11-05T07:52:43.169Z,9840
2017-11-05T07:53:43.190Z,10196
2017-11-05T07:54:42.881Z,10548
2017-11-05T07:56:12.441Z,10640
2017-11-05T07:56:43.272Z,10660
2017-11-05T07:57:43.285Z,10884
2017-11-05T07:58:43.298Z,11268
2017-11-05T08:01:43.044Z,11876
2017-11-05T08:02:57.976Z,12120
2017-11-05T08:03:43.383Z,12284
2017-11-05T08:04:43.083Z,12336
2017-11-05T08:05:43.435Z,11972
2017-11-05T08:06:43.454Z,12220
2017-11-05T08:07:43.500Z,12336
2017-11-05T08:08:43.486Z,11780
2017-11-05T08:09:43.506Z,10924
2017-11-05T08:10:58.146Z,10936
2017-11-05T08:11:43.546Z,11444
2017-11-05T08:12:43.576Z,10604
2017-11-05T08:13:43.584Z,10256
2017-11-05T08:14:43.606Z,11744
2017-11-05T08:15:43.636Z,12228
2017-11-05T08:16:43.338Z,10568
2017-11-05T08:17:43.673Z,11016
2017-11-05T08:18:58.306Z,8156
2017-11-05T08:19:43.721Z,6824
2017-11-05T08:20:43.733Z,6244
2017-11-05T08:21:43.744Z,5880
2017-11-05T08:22:43.780Z,5412
2017-11-05T08:23:43.788Z,4944
2017-11-05T08:24:43.823Z,4644
2017-11-05T08:25:43.834Z,4552
2017-11-05T08:26:58.155Z,4536
2017-11-05T08:27:58.490Z,4536
2017-11-05T08:28:43.910Z,4560
2017-11-05T08:29:43.937Z,4596
2017-11-05T08:30:43.956Z,4656
2017-11-05T08:31:43.967Z,4756
2017-11-05T08:32:43.654Z,4840
2017-11-05T08:33:44.005Z,4864
2017-11-05T08:34:44.066Z,4832
2017-11-05T08:35:58.647Z,4864
2017-11-05T08:36:44.084Z,5004
2017-11-05T08:37:44.089Z,5084
2017-11-05T08:38:43.149Z,5380
2017-11-05T08:39:43.811Z,5484
2017-11-05T08:40:43.823Z,5636
2017-11-05T08:41:58.768Z,6048
2017-11-05T08:42:44.196Z,6456
2017-11-05T08:43:58.831Z,7488
2017-11-05T08:44:44.216Z,8056
2017-11-05T08:45:43.912Z,9592
2017-11-05T08:46:44.265Z,11212
2017-11-05T08:47:44.009Z,13144
2017-11-05T08:48:58.935Z,14644
2017-11-05T08:49:44.334Z,14732
2017-11-05T08:50:58.956Z,14836
2017-11-05T08:51:44.385Z,12480
2017-11-05T08:52:44.386Z,10540
2017-11-05T08:53:44.442Z,11676
2017-11-05T08:54:44.420Z,13928
2017-11-05T08:55:44.459Z,10528
2017-11-05T08:56:44.458Z,9636
2017-11-05T08:57:44.164Z,8816
2017-11-05T08:58:44.514Z,7852
2017-11-05T08:59:58.834Z,6868
2017-11-05T09:00:44.262Z,6468
2017-11-05T09:01:43.945Z,6096
2017-11-05T09:02:44.286Z,6004
2017-11-05T09:03:44.312Z,5960
2017-11-05T09:06:44.702Z,5704
2017-11-05T09:07:44.392Z,5456
2017-11-05T09:08:44.401Z,5228
2017-11-05T09:09:44.433Z,4880
2017-11-05T09:10:44.764Z,4424
2017-11-05T09:11:44.813Z,4064
2017-11-05T09:12:44.833Z,3852
2017-11-05T09:13:44.833Z,3864
2017-11-05T09:14:44.540Z,4036
2017-11-05T09:15:59.500Z,4196
2017-11-05T09:16:44.899Z,4248
2017-11-05T09:17:44.269Z,4276
2017-11-05T09:18:44.946Z,4332
2017-11-05T09:19:44.956Z,4500
2017-11-05T09:20:44.657Z,4732
2017-11-05T09:21:44.689Z,4988
2017-11-05T09:22:45.031Z,5212
2017-11-05T09:23:45.074Z,5408
2017-11-05T09:24:45.089Z,5644
2017-11-05T09:25:59.681Z,5888
2017-11-05T09:26:44.804Z,6016
2017-11-05T09:27:59.730Z,6200
2017-11-05T09:28:45.135Z,6304
2017-11-05T09:29:59.463Z,6464
2017-11-05T09:30:59.795Z,6580
2017-11-05T09:31:44.880Z,6740
2017-11-05T09:32:44.920Z,6924
2017-11-05T09:33:44.934Z,7076
2017-11-05T09:34:44.953Z,7112
2017-11-05T09:35:45.305Z,6912
2017-11-05T09:36:45.036Z,6540
2017-11-05T09:37:45.006Z,6064
2017-11-05T09:38:59.956Z,5608
2017-11-05T09:39:45.382Z,5388
2017-11-05T09:40:45.100Z,5092
2017-11-05T09:41:45.422Z,4792
2017-11-05T09:42:45.457Z,4512
2017-11-05T09:43:45.482Z,4264
2017-11-05T09:44:45.499Z,4032
2017-11-05T09:45:45.506Z,3816
2017-11-05T09:46:59.815Z,3592
2017-11-05T09:48:45.560Z,3608
2017-11-05T09:49:45.598Z,3808
2017-11-05T09:50:45.597Z,4020
2017-11-05T09:51:45.673Z,4312
2017-11-05T09:52:45.658Z,4600
2017-11-05T09:55:00.299Z,5100
2017-11-05T09:55:45.715Z,5388
2017-11-05T09:56:45.424Z,5860
2017-11-05T09:57:45.770Z,6264
2017-11-05T09:58:45.774Z,6396
2017-11-05T10:00:45.503Z,6280
2017-11-05T10:02:00.459Z,6060
2017-11-05T10:03:14.752Z,5844
2017-11-05T10:03:45.871Z,5724
2017-11-05T10:05:45.919Z,4972
2017-11-05T10:07:00.232Z,4516
2017-11-05T10:07:45.649Z,4324
2017-11-05T10:08:45.346Z,4228
2017-11-05T10:09:45.701Z,4216
2017-11-05T10:10:45.722Z,4316
2017-11-05T10:11:46.054Z,4468
2017-11-05T10:12:46.079Z,4740
2017-11-05T10:14:00.699Z,5084
2017-11-05T10:14:45.793Z,5272
2017-11-05T10:15:45.492Z,5528
2017-11-05T10:16:45.511Z,5728
2017-11-05T10:18:00.463Z,5924
2017-11-05T10:19:00.489Z,5936
2017-11-05T10:20:00.819Z,5824
2017-11-05T10:21:00.845Z,5660
2017-11-05T10:21:46.271Z,5568
2017-11-05T10:22:45.972Z,5580
2017-11-05T10:23:46.313Z,5740
2017-11-05T10:24:46.348Z,5984
2017-11-05T10:25:46.025Z,6128
2017-11-05T10:27:00.980Z,5944
2017-11-05T10:27:46.434Z,5704
2017-11-05T10:28:46.433Z,5356
2017-11-05T10:29:46.442Z,5128
2017-11-05T10:30:46.448Z,5028
2017-11-05T10:31:46.157Z,5064
2017-11-05T10:32:46.503Z,5036
2017-11-05T10:33:46.557Z,4756
2017-11-05T10:35:00.840Z,4340
2017-11-05T10:35:46.256Z,4236
2017-11-05T10:36:46.261Z,4328
2017-11-05T10:37:45.959Z,4720
2017-11-05T10:38:46.646Z,4944
2017-11-05T10:39:46.657Z,4864
2017-11-05T10:40:46.684Z,4592
2017-11-05T10:41:46.715Z,4172
2017-11-05T10:42:46.699Z,3536
2017-11-05T10:44:46.794Z,2624
2017-11-05T10:46:01.384Z,2284
2017-11-05T10:46:46.806Z,2148
2017-11-05T10:47:46.508Z,2048
2017-11-05T10:49:01.448Z,2044
2017-11-05T10:49:46.864Z,2096
2017-11-05T10:51:01.497Z,2128
2017-11-05T10:51:46.926Z,2088
2017-11-05T10:52:46.936Z,1960
2017-11-05T10:53:46.958Z,1836
2017-11-05T10:54:46.984Z,1752
2017-11-05T10:55:46.662Z,1732
2017-11-05T10:56:47.041Z,1788
2017-11-05T10:57:47.039Z,1836
2017-11-05T11:00:46.770Z,2224
2017-11-05T11:01:47.121Z,2432
2017-11-05T11:02:46.828Z,2524
2017-11-05T11:03:46.840Z,2472
2017-11-05T11:04:47.190Z,2344
2017-11-05T11:06:01.828Z,2196
2017-11-05T11:06:46.579Z,2124
2017-11-05T11:07:47.250Z,2004
2017-11-05T11:08:46.945Z,1860
2017-11-05T11:09:47.273Z,1720
2017-11-05T11:11:01.918Z,1528
2017-11-05T11:11:47.328Z,1476
2017-11-05T11:13:47.385Z,1508
2017-11-05T11:14:47.384Z,1520
2017-11-05T11:15:47.421Z,1516
2017-11-05T11:17:47.154Z,1424
2017-11-05T11:18:47.491Z,1392
2017-11-05T11:20:47.208Z,1420
2017-11-05T11:21:47.562Z,1452
2017-11-05T11:22:47.559Z,1460
2017-11-05T11:23:47.590Z,1468
2017-11-05T11:24:47.287Z,1476
2017-11-05T11:25:47.634Z,1484
2017-11-05T11:26:47.332Z,1504
2017-11-05T11:27:47.688Z,1560
2017-11-05T11:28:47.705Z,1636
2017-11-05T11:29:47.397Z,1744
2017-11-05T11:30:47.737Z,1864
2017-11-05T11:31:47.793Z,2016
2017-11-05T11:32:47.473Z,2156
2017-11-05T11:33:47.798Z,2252
2017-11-05T11:34:47.501Z,2324
2017-11-05T11:35:47.533Z,2388
2017-11-05T11:36:47.542Z,2448
2017-11-05T11:38:02.512Z,2532
2017-11-05T11:38:47.587Z,2588
2017-11-05T11:39:47.929Z,2704
2017-11-05T11:40:47.955Z,2828
2017-11-05T11:41:47.973Z,2928
2017-11-05T11:42:48.053Z,3040
2017-11-05T11:43:48.014Z,3124
2017-11-05T11:45:02.635Z,3128
2017-11-05T11:45:47.737Z,3160
2017-11-05T11:47:02.675Z,3288
2017-11-05T11:48:02.708Z,3440
2017-11-05T11:48:48.105Z,3616
2017-11-05T11:49:48.140Z,3848
2017-11-05T11:50:47.836Z,4024
2017-11-05T11:51:48.188Z,4156
2017-11-05T11:54:02.835Z,4244
2017-11-05T11:54:47.940Z,4344
2017-11-05T11:55:47.934Z,4540
2017-11-05T11:57:47.657Z,4780
2017-11-05T11:58:48.351Z,4744
2017-11-05T11:59:48.361Z,4656
2017-11-05T12:00:48.080Z,4508
2017-11-05T12:02:02.691Z,4324
2017-11-05T12:02:48.442Z,4212
2017-11-05T12:03:48.491Z,4092
2017-11-05T12:05:48.174Z,3840
2017-11-05T12:06:47.861Z,3664
2017-11-05T12:08:03.138Z,3480
2017-11-05T12:08:48.567Z,3424
2017-11-05T12:10:03.167Z,3444
2017-11-05T12:11:02.888Z,3488
2017-11-05T12:11:48.284Z,3516
2017-11-05T12:14:03.267Z,3540
2017-11-05T12:14:48.683Z,3508
2017-11-05T12:15:48.697Z,3440
2017-11-05T12:16:48.719Z,3332
2017-11-05T12:18:03.353Z,3220
2017-11-05T12:18:48.773Z,3128
2017-11-05T12:20:03.069Z,2920
2017-11-05T12:20:48.832Z,2832
2017-11-05T12:21:48.503Z,2796
2017-11-05T12:22:48.845Z,2812
2017-11-05T12:23:48.872Z,2844
2017-11-05T12:24:48.907Z,2864
2017-11-05T12:26:03.531Z,2880
2017-11-05T12:26:48.945Z,2860
2017-11-05T12:28:02.928Z,2836
2017-11-05T12:28:48.658Z,2832
2017-11-05T12:29:48.675Z,2772
2017-11-05T12:30:49.013Z,2684
2017-11-05T12:31:48.761Z,2524
2017-11-05T12:32:49.088Z,2428
2017-11-05T12:33:49.108Z,2396
2017-11-05T12:35:49.125Z,2360
2017-11-05T12:36:49.169Z,2328
2017-11-05T12:38:03.797Z,2208
2017-11-05T12:38:49.203Z,2160
2017-11-05T12:39:48.888Z,2140
2017-11-05T12:41:48.946Z,2208
2017-11-05T12:43:03.565Z,2320
2017-11-05T12:44:03.908Z,2428
2017-11-05T12:44:49.317Z,2452
2017-11-05T12:45:49.043Z,2468
2017-11-05T12:46:49.371Z,2480
2017-11-05T12:47:49.408Z,2456
2017-11-05T12:48:49.436Z,2384
2017-11-05T12:49:49.431Z,2320
2017-11-05T12:50:49.450Z,2308
2017-11-05T12:51:49.496Z,2320
2017-11-05T12:53:04.122Z,2376
2017-11-05T12:53:49.527Z,2400
2017-11-05T12:55:04.180Z,2412
2017-11-05T12:55:49.581Z,2404
2017-11-05T12:56:49.582Z,2336
2017-11-05T12:57:49.628Z,2312
2017-11-05T12:58:49.642Z,2372
2017-11-05T12:59:49.342Z,2392
2017-11-05T13:00:49.692Z,2392
2017-11-05T13:01:49.391Z,2368
2017-11-05T13:02:49.712Z,2292
2017-11-05T13:03:49.742Z,2236
2017-11-05T13:04:49.446Z,2232
2017-11-05T13:05:49.796Z,2272
2017-11-05T13:06:49.840Z,2256
2017-11-05T13:07:49.841Z,2164
2017-11-05T13:08:49.220Z,2004
2017-11-05T13:09:49.879Z,1788
2017-11-05T13:10:49.587Z,1564
2017-11-05T13:11:49.918Z,1364
2017-11-05T13:13:49.964Z,1096
2017-11-05T13:15:04.280Z,1000
2017-11-05T13:15:49.998Z,972
2017-11-05T13:16:50.041Z,944
2017-11-05T13:17:49.727Z,916
2017-11-05T13:18:49.427Z,896
2017-11-05T13:19:49.772Z,900
2017-11-05T13:20:50.097Z,908
2017-11-05T13:21:50.127Z,920
2017-11-05T13:22:49.839Z,916
2017-11-05T13:23:50.183Z,900
2017-11-05T13:24:49.568Z,892
2017-11-05T13:25:49.576Z,912
2017-11-05T13:26:49.919Z,948
2017-11-05T13:28:04.543Z,992
2017-11-05T13:29:04.584Z,1004
2017-11-05T13:29:50.336Z,1024
2017-11-05T13:31:50.023Z,1112
2017-11-05T13:32:50.368Z,1184
2017-11-05T13:33:50.083Z,1260
2017-11-05T13:34:50.102Z,1344
2017-11-05T13:36:50.452Z,1368
2017-11-05T13:37:50.489Z,1288
2017-11-05T13:38:50.511Z,1192
2017-11-05T13:39:50.520Z,1124
2017-11-05T13:40:50.552Z,1032
2017-11-05T13:41:50.252Z,960
2017-11-05T13:42:50.278Z,904
2017-11-05T13:43:50.608Z,856
2017-11-05T13:45:04.911Z,836
2017-11-05T13:45:50.662Z,836
2017-11-05T13:46:50.049Z,840
2017-11-05T13:47:50.382Z,868
2017-11-05T13:48:50.702Z,900
2017-11-05T13:49:50.755Z,924
2017-11-05T13:50:50.760Z,944
2017-11-05T13:51:50.449Z,980
2017-11-05T13:52:50.485Z,1044
2017-11-05T13:53:50.837Z,1120
2017-11-05T13:54:50.843Z,1148
2017-11-05T13:55:50.883Z,1136
2017-11-05T13:57:50.602Z,1116
2017-11-05T13:58:50.937Z,1108
2017-11-05T13:59:50.945Z,1092
2017-11-05T14:01:05.275Z,1040
2017-11-05T14:02:05.294Z,980
2017-11-05T14:02:51.024Z,908
2017-11-05T14:03:50.757Z,820
2017-11-05T14:04:51.085Z,772
2017-11-05T14:05:50.775Z,736
2017-11-05T14:06:51.108Z,720
2017-11-05T14:07:50.819Z,700
2017-11-05T14:08:50.828Z,688
2017-11-05T14:09:50.848Z,688
2017-11-05T14:11:50.905Z,652
2017-11-05T14:12:50.917Z,620
2017-11-05T14:13:50.936Z,624
2017-11-05T14:14:51.294Z,652
2017-11-05T14:16:05.602Z,700
2017-11-05T14:16:51.317Z,728
2017-11-05T14:17:51.359Z,744
2017-11-05T14:18:51.048Z,740
2017-11-05T14:19:51.381Z,708
2017-11-05T14:20:51.431Z,656
2017-11-05T14:21:51.440Z,612
2017-11-05T14:22:51.450Z,576
2017-11-05T14:23:51.495Z,564
2017-11-05T14:24:51.203Z,576
2017-11-05T14:25:51.205Z,632
2017-11-05T14:26:51.543Z,720
2017-11-05T14:27:51.553Z,828
2017-11-05T14:28:51.263Z,960
2017-11-05T14:29:51.594Z,1024
2017-11-05T14:30:51.312Z,1012
2017-11-05T14:31:51.664Z,932
2017-11-05T14:33:51.682Z,796
2017-11-05T14:35:06.341Z,764
2017-11-05T14:35:51.737Z,752
2017-11-05T14:36:51.766Z,712
2017-11-05T14:37:51.779Z,636
2017-11-05T14:38:51.472Z,524
2017-11-05T14:40:06.421Z,408
2017-11-05T14:41:06.432Z,352
2017-11-05T14:41:51.216Z,332
2017-11-05T14:42:51.884Z,328
2017-11-05T14:44:06.505Z,336
2017-11-05T14:44:51.923Z,332
2017-11-05T14:45:51.943Z,320
2017-11-05T14:46:51.968Z,296
2017-11-05T14:48:06.291Z,280
2017-11-05T14:48:52.014Z,276
2017-11-05T14:49:52.070Z,272
2017-11-05T14:50:52.052Z,268
2017-11-05T14:51:52.088Z,252